Time;durP1;ratioP1;P1;durP2;ratioP2;P2;SDS_P1;SDS_P2;PMS_P1;PMS_P2;Temp;Humidity;BMP_temperature;BMP_pressure;BME280_temperature;BME280_humidity;BME280_pressure;Samples;Min_cycle;Max_cycle;Signal;HPM_P1;HPM_P2
2022/09/25 00:00:15;;;;;;;1.83;1.73;;;;;;;18.32;49.74;93015.34;5084190;28;20036;-88
2022/09/25 00:02:41;;;;;;;2.28;1.73;;;;;;;18.30;49.45;93017.88;5051578;28;20039;-88
2022/09/25 00:05:06;;;;;;;2.28;1.95;;;;;;;18.33;49.98;93017.56;5068266;28;20040;-87
2022/09/25 00:07:32;;;;;;;2.15;1.95;;;;;;;18.30;49.79;93020.59;5065318;28;20040;-88
2022/09/25 00:09:57;;;;;;;3.13;2.25;;;;;;;18.30;49.67;93012.41;5043308;28;20362;-87
2022/09/25 00:12:23;;;;;;;2.25;1.83;;;;;;;18.33;49.61;93022.31;5047998;28;20373;-87
2022/09/25 00:14:49;;;;;;;2.35;2.03;;;;;;;18.30;49.47;93012.41;5060186;28;20495;-88
2022/09/25 00:17:14;;;;;;;3.20;2.20;;;;;;;18.31;49.49;93013.88;5050136;28;20040;-88
2022/09/25 00:19:49;;;;;;;1.92;1.73;;;;;;;18.31;50.02;93011.13;5068227;28;20486;-87
2022/09/25 00:22:18;;;;;;;1.92;1.70;;;;;;;18.29;49.52;92997.22;5053001;28;20471;-88
2022/09/25 00:24:43;;;;;;;2.15;1.95;;;;;;;18.30;50.28;92999.44;5048139;28;20053;-87
2022/09/25 00:27:09;;;;;;;1.75;1.65;;;;;;;18.29;49.66;93011.66;5051162;28;20039;-88
2022/09/25 00:29:38;;;;;;;2.20;2.00;;;;;;;18.29;49.64;93005.44;5035758;28;20044;-87
2022/09/25 00:32:04;;;;;;;1.70;1.60;;;;;;;18.28;49.98;93003.97;5035176;28;20040;-87
2022/09/25 00:34:29;;;;;;;2.03;1.70;;;;;;;18.32;49.56;93007.13;5068948;28;20067;-87
2022/09/25 00:36:55;;;;;;;3.40;1.58;;;;;;;18.29;49.76;93000.72;5035825;28;20029;-87
2022/09/25 00:39:20;;;;;;;2.70;1.98;;;;;;;18.31;49.71;93000.94;5051608;28;20047;-88
2022/09/25 00:41:46;;;;;;;2.35;2.08;;;;;;;18.27;49.76;93000.50;5052538;28;20047;-87
2022/09/25 00:44:42;;;;;;;1.80;1.70;;;;;;;18.30;49.66;92998.72;5051137;28;20033;-87
2022/09/25 00:47:07;;;;;;;2.42;1.73;;;;;;;18.31;49.89;92989.25;5076357;28;20483;-87
2022/09/25 00:49:33;;;;;;;2.00;1.83;;;;;;;18.29;49.71;92989.03;5043320;28;20040;-87
2022/09/25 00:52:03;;;;;;;2.00;1.80;;;;;;;18.28;49.75;92982.81;5109875;28;20039;-88
2022/09/25 00:54:33;;;;;;;2.35;1.90;;;;;;;18.28;49.88;92987.53;5066328;28;20044;-88
2022/09/25 00:57:01;;;;;;;3.08;2.13;;;;;;;18.28;49.91;92991.03;5064109;28;20035;-87
2022/09/25 00:59:29;;;;;;;1.75;1.60;;;;;;;18.27;49.80;92981.34;5043510;28;20037;-87
2022/09/25 01:01:55;;;;;;;2.78;1.80;;;;;;;18.29;49.72;92973.34;5068381;28;20055;-86
2022/09/25 01:04:22;;;;;;;2.97;1.90;;;;;;;18.30;49.58;92979.56;5050965;28;20487;-87
2022/09/25 01:06:48;;;;;;;1.98;1.77;;;;;;;18.28;49.75;92971.88;5021340;28;20029;-87
2022/09/25 01:09:14;;;;;;;2.25;1.60;;;;;;;18.27;49.71;92975.88;5024804;28;20583;-87
2022/09/25 01:11:39;;;;;;;2.08;1.88;;;;;;;18.27;50.13;92978.59;5042810;28;20070;-87
2022/09/25 01:14:05;;;;;;;2.45;1.80;;;;;;;18.31;49.92;92981.03;5050851;28;20032;-87
2022/09/25 01:16:55;;;;;;;1.70;1.60;;;;;;;18.27;49.61;92983.31;5059519;28;20044;-89
2022/09/25 01:19:57;;;;;;;1.85;1.75;;;;;;;18.28;49.53;92974.59;5065946;28;20043;-87
2022/09/25 01:22:51;;;;;;;2.03;1.80;;;;;;;18.27;49.68;92975.13;5066743;28;20526;-87
2022/09/25 01:25:33;;;;;;;1.63;1.52;;;;;;;18.28;49.99;92971.88;5074874;28;20044;-86
2022/09/25 01:28:20;;;;;;;2.03;1.70;;;;;;;18.27;49.82;92977.84;5070786;28;20503;-87
2022/09/25 01:30:48;;;;;;;2.20;2.00;;;;;;;18.31;49.75;92981.03;5067629;28;20041;-88
2022/09/25 01:33:17;;;;;;;1.83;1.70;;;;;;;18.29;49.67;92975.34;5060180;28;20116;-88
2022/09/25 01:36:03;;;;;;;1.63;1.50;;;;;;;18.26;50.21;92957.22;5051204;28;20040;-87
2022/09/25 01:38:48;;;;;;;1.52;1.40;;;;;;;18.28;49.73;92973.88;5083628;28;20043;-87
2022/09/25 01:41:17;;;;;;;2.88;2.60;;;;;;;18.25;50.01;92970.16;5084384;28;20435;-87
2022/09/25 01:44:13;;;;;;;1.83;1.60;;;;;;;18.26;49.71;92963.44;5067499;28;20033;-87
2022/09/25 01:46:41;;;;;;;2.72;2.17;;;;;;;18.28;49.85;92965.66;5081919;28;20287;-87
2022/09/25 01:49:13;;;;;;;1.92;1.60;;;;;;;18.25;49.74;92967.44;5050493;28;20028;-87
2022/09/25 01:51:41;;;;;;;2.20;1.80;;;;;;;18.28;49.74;92973.88;5060879;28;20111;-88
2022/09/25 01:54:08;;;;;;;1.90;1.60;;;;;;;18.26;49.78;92970.91;5070341;28;20035;-88
2022/09/25 01:56:37;;;;;;;1.58;1.48;;;;;;;18.30;49.58;92965.88;5044650;28;20488;-87
2022/09/25 01:59:06;;;;;;;2.17;1.75;;;;;;;18.26;49.68;92957.97;5069473;28;20123;-88
2022/09/25 02:01:33;;;;;;;1.80;1.55;;;;;;;18.27;49.91;92972.38;5050427;28;20028;-87
2022/09/25 02:04:03;;;;;;;1.73;1.50;;;;;;;18.26;50.15;92970.91;5050400;28;20128;-87
2022/09/25 02:06:29;;;;;;;1.98;1.75;;;;;;;18.27;49.66;92964.91;5057555;28;20032;-87
2022/09/25 02:08:59;;;;;;;2.28;2.08;;;;;;;18.27;49.75;92966.91;5053172;28;20051;-87
2022/09/25 02:11:27;;;;;;;2.47;1.97;;;;;;;18.27;49.81;92961.44;5065743;28;20040;-88
2022/09/25 02:13:57;;;;;;;1.75;1.42;;;;;;;18.27;49.72;92948.50;5054167;28;20119;-87
2022/09/25 02:16:29;;;;;;;1.88;1.67;;;;;;;18.27;49.94;92950.50;5087573;27;20064;-87
2022/09/25 02:21:43;;;;;;;1.58;1.48;;;;;;;18.25;49.97;92942.06;5093778;28;20120;-87
2022/09/25 02:24:23;;;;;;;1.83;1.50;;;;;;;18.25;50.12;92948.28;5101344;28;20151;-87
2022/09/25 02:26:49;;;;;;;2.22;1.80;;;;;;;18.25;50.12;92951.03;5061675;28;20036;-87
2022/09/25 02:29:14;;;;;;;2.40;1.80;;;;;;;18.27;49.82;92953.22;5058665;28;20039;-88
2022/09/25 02:31:56;;;;;;;1.75;1.50;;;;;;;18.27;49.86;92948.50;5066265;28;20033;-88
2022/09/25 02:34:21;;;;;;;1.65;1.50;;;;;;;18.25;49.82;92948.28;5054603;28;20128;-88
2022/09/25 02:36:47;;;;;;;2.08;1.75;;;;;;;18.25;50.08;92953.00;5066705;28;20119;-88
2022/09/25 02:39:13;;;;;;;2.15;1.88;;;;;;;18.27;49.98;92959.44;5048691;28;20491;-87
2022/09/25 02:41:45;;;;;;;1.52;1.42;;;;;;;18.26;50.12;92955.22;5042853;28;20036;-88
2022/09/25 02:44:27;;;;;;;2.47;1.90;;;;;;;18.24;50.00;92957.00;5063288;28;20487;-88
2022/09/25 02:47:13;;;;;;;3.03;2.00;;;;;;;18.27;49.89;92958.72;5065071;28;20435;-87
2022/09/25 02:50:01;;;;;;;2.05;1.83;;;;;;;18.25;49.87;92945.53;5079787;28;20064;-88
2022/09/25 02:52:34;;;;;;;2.17;1.92;;;;;;;18.25;49.75;92951.03;5049717;28;20040;-88
2022/09/25 02:55:11;;;;;;;1.88;1.70;;;;;;;18.25;49.90;92942.81;5060250;28;20174;-87
2022/09/25 02:57:44;;;;;;;1.95;1.75;;;;;;;18.23;50.10;92942.59;5052884;28;20054;-87
2022/09/25 03:00:10;;;;;;;1.52;1.42;;;;;;;18.24;50.00;92946.06;5043672;28;20156;-87
2022/09/25 03:02:35;;;;;;;2.65;2.00;;;;;;;18.25;49.99;92934.59;5049534;28;20033;-87
2022/09/25 03:05:01;;;;;;;2.13;1.92;;;;;;;18.25;50.06;92939.34;5049225;28;20044;-88
2022/09/25 03:07:26;;;;;;;2.10;1.90;;;;;;;18.26;50.15;92947.03;5089049;28;20048;-87
2022/09/25 03:09:52;;;;;;;2.20;2.00;;;;;;;18.23;50.07;92945.31;5071124;28;20432;-87
2022/09/25 03:12:17;;;;;;;1.50;1.40;;;;;;;18.24;50.22;92940.59;5069636;28;20754;-87
2022/09/25 03:14:43;;;;;;;1.63;1.50;;;;;;;18.25;49.96;92947.53;5069556;28;20040;-87
2022/09/25 03:17:09;;;;;;;1.75;1.63;;;;;;;18.26;50.09;92935.34;5055092;28;20293;-87
2022/09/25 03:19:34;;;;;;;2.03;1.73;;;;;;;18.24;50.02;92938.59;5075014;28;20044;-87
2022/09/25 03:22:00;;;;;;;2.95;1.58;;;;;;;18.25;49.97;92934.59;5065600;28;20167;-87
2022/09/25 03:24:26;;;;;;;1.50;1.40;;;;;;;18.24;49.94;92938.59;5032135;28;20047;-87
2022/09/25 03:26:52;;;;;;;1.70;1.60;;;;;;;18.25;50.03;92942.06;5056053;28;20089;-87
2022/09/25 03:29:18;;;;;;;2.00;1.80;;;;;;;18.25;49.95;92933.88;5047938;28;20163;-87
2022/09/25 03:31:44;;;;;;;2.42;2.03;;;;;;;18.25;50.16;92925.66;5060029;28;20311;-87
2022/09/25 03:34:10;;;;;;;1.98;1.38;;;;;;;18.25;49.92;92931.13;5061467;28;20068;-88
2022/09/25 03:36:36;;;;;;;2.67;1.77;;;;;;;18.24;50.21;92932.38;5053205;28;20036;-88
2022/09/25 03:39:02;;;;;;;3.75;1.70;;;;;;;18.24;50.04;92927.66;5052188;28;20032;-87
2022/09/25 03:41:29;;;;;;;1.80;1.70;;;;;;;18.24;49.70;92926.91;5082116;28;20039;-87
2022/09/25 03:43:55;;;;;;;2.42;1.70;;;;;;;18.25;50.00;92929.13;5033072;28;20312;-87
2022/09/25 03:46:25;;;;;;;2.10;1.77;;;;;;;18.22;50.08;92924.69;5055251;28;20384;-88
2022/09/25 03:48:51;;;;;;;1.60;1.50;;;;;;;18.27;50.19;92915.66;5037264;28;20064;-87
2022/09/25 03:51:17;;;;;;;1.35;1.25;;;;;;;18.24;50.02;92916.72;5048412;28;20131;-87
2022/09/25 03:53:43;;;;;;;2.40;1.48;;;;;;;18.24;50.02;92921.44;5070156;28;20040;-88
2022/09/25 03:56:11;;;;;;;2.28;1.60;;;;;;;18.23;50.10;92922.69;5036003;28;20036;-87
2022/09/25 03:58:38;;;;;;;1.40;1.30;;;;;;;18.24;49.90;92927.66;5052512;28;20116;-87
2022/09/25 04:01:04;;;;;;;2.33;1.67;;;;;;;18.23;50.26;92917.97;5035863;28;20492;-87
2022/09/25 04:03:29;;;;;;;1.63;1.48;;;;;;;18.23;49.98;92922.69;5069922;28;20044;-88
2022/09/25 04:05:55;;;;;;;2.13;1.92;;;;;;;18.26;50.05;92924.41;5069370;28;20044;-88
2022/09/25 04:08:24;;;;;;;2.05;1.60;;;;;;;18.26;49.96;92914.19;5068955;28;20056;-87
2022/09/25 04:10:49;;;;;;;1.52;1.20;;;;;;;18.25;49.92;92915.44;5052486;28;20586;-87
2022/09/25 04:13:15;;;;;;;2.65;1.88;;;;;;;18.24;50.17;92921.44;5077547;28;20043;-88
2022/09/25 04:15:41;;;;;;;2.13;1.70;;;;;;;18.25;50.10;92917.44;5033051;28;20155;-88
2022/09/25 04:18:07;;;;;;;1.95;1.75;;;;;;;18.21;49.85;92920.47;5085415;28;20214;-87
2022/09/25 04:20:33;;;;;;;1.73;1.63;;;;;;;18.23;50.04;92926.19;5044269;28;20039;-87
2022/09/25 04:22:58;;;;;;;2.65;1.90;;;;;;;18.21;49.91;92919.75;5073695;28;20036;-87
2022/09/25 04:25:24;;;;;;;1.58;1.48;;;;;;;18.22;50.02;92921.97;5054869;28;20044;-87
2022/09/25 04:27:52;;;;;;;1.90;1.70;;;;;;;18.21;49.92;92917.00;5069139;28;20050;-87
2022/09/25 04:30:18;;;;;;;1.92;1.67;;;;;;;18.25;49.80;92909.25;5051863;28;20043;-87
2022/09/25 04:35:28;;;;;;;1.60;1.50;;;;;;;18.25;49.80;92909.25;5048251;28;20403;-87
2022/09/25 04:37:53;;;;;;;1.70;1.60;;;;;;;18.22;50.16;92916.50;5016010;28;20454;-87
2022/09/25 04:40:19;;;;;;;1.85;1.50;;;;;;;18.21;50.21;92906.81;5022250;28;20040;-87
2022/09/25 04:42:44;;;;;;;1.98;1.60;;;;;;;18.21;50.37;92915.00;5052028;28;20534;-88
2022/09/25 04:45:10;;;;;;;2.35;1.80;;;;;;;18.23;50.00;92920.69;5035541;28;20035;-88
2022/09/25 04:47:35;;;;;;;3.10;1.70;;;;;;;18.21;50.09;92917.00;5058721;28;20025;-87
2022/09/25 04:50:00;;;;;;;1.70;1.42;;;;;;;18.21;50.13;92919.75;5052060;28;20082;-87
2022/09/25 04:52:27;;;;;;;1.83;1.67;;;;;;;18.22;49.91;92921.22;5068084;28;20037;-87
2022/09/25 04:54:52;;;;;;;1.33;1.23;;;;;;;18.25;50.00;92928.38;5052500;28;20036;-87
2022/09/25 04:57:19;;;;;;;2.50;1.88;;;;;;;18.24;49.90;92924.91;5036278;28;20036;-87
2022/09/25 04:59:44;;;;;;;2.17;1.50;;;;;;;18.23;50.29;92911.75;5070200;28;20048;-87
2022/09/25 05:02:10;;;;;;;1.38;1.13;;;;;;;18.23;49.78;92917.97;5071460;28;20147;-87
2022/09/25 05:04:36;;;;;;;1.80;1.70;;;;;;;18.23;50.03;92919.97;5071639;28;20033;-87
2022/09/25 05:07:01;;;;;;;3.45;1.70;;;;;;;18.22;49.97;92926.69;5071404;28;20077;-87
2022/09/25 05:09:27;;;;;;;2.05;1.85;;;;;;;18.23;50.02;92928.16;5070622;28;20040;-87
2022/09/25 05:11:52;;;;;;;2.88;1.90;;;;;;;18.23;50.01;92925.44;5070533;28;20052;-88
2022/09/25 05:14:18;;;;;;;2.10;1.90;;;;;;;18.24;50.26;92918.69;5071521;28;20042;-88
2022/09/25 05:16:44;;;;;;;116.88;91.93;;;;;;;18.24;49.79;92930.38;5072195;28;20409;-89
2022/09/25 05:19:10;;;;;;;4.75;3.60;;;;;;;18.25;50.14;92928.38;5053538;28;20386;-89
2022/09/25 05:21:36;;;;;;;3.55;2.63;;;;;;;18.24;50.09;92930.38;5068874;28;20040;-86
2022/09/25 05:24:01;;;;;;;2.63;2.25;;;;;;;18.22;50.02;92921.97;5053279;28;20055;-86
2022/09/25 05:26:29;;;;;;;2.80;2.33;;;;;;;18.26;50.32;92927.13;5067207;28;20446;-86
2022/09/25 05:28:54;;;;;;;2.70;2.28;;;;;;;18.23;50.04;92936.38;5050571;28;20479;-87
2022/09/25 05:31:19;;;;;;;3.08;2.63;;;;;;;18.22;49.82;92935.63;5047262;28;20051;-87
2022/09/25 05:33:45;;;;;;;3.83;2.55;;;;;;;18.22;49.96;92927.44;5067915;28;20040;-86
2022/09/25 05:36:13;;;;;;;4.20;3.10;;;;;;;18.22;50.20;92932.91;5058582;28;20098;-87
2022/09/25 05:38:39;;;;;;;2.60;2.13;;;;;;;18.22;50.22;92932.91;5051748;28;20040;-87
2022/09/25 05:41:06;;;;;;;3.22;2.55;;;;;;;18.23;50.01;92934.38;5032978;28;20538;-86
2022/09/25 05:43:32;;;;;;;3.28;2.35;;;;;;;18.21;50.23;92925.94;5051856;28;20041;-87
2022/09/25 05:45:58;;;;;;;2.92;2.50;;;;;;;18.23;49.85;92928.16;5067382;28;20056;-86
2022/09/25 05:48:24;;;;;;;2.42;2.20;;;;;;;18.20;50.09;92923.72;5067072;28;20036;-87
2022/09/25 05:50:53;;;;;;;2.90;2.50;;;;;;;18.21;49.91;92933.41;5057773;28;20048;-87
2022/09/25 05:53:18;;;;;;;2.63;2.20;;;;;;;18.24;49.94;92943.31;5072466;28;20041;-87
2022/09/25 05:55:57;;;;;;;2.55;2.15;;;;;;;18.22;49.98;92937.63;5021305;28;20091;-87
2022/09/25 05:58:22;;;;;;;2.88;2.40;;;;;;;18.22;49.85;92935.63;5033312;28;20048;-86
2022/09/25 06:00:48;;;;;;;2.47;2.20;;;;;;;18.25;49.69;92931.88;5033492;28;20040;-87
2022/09/25 06:03:15;;;;;;;4.18;2.45;;;;;;;18.21;50.17;92931.44;5081128;28;20070;-87
2022/09/25 06:05:40;;;;;;;2.90;2.33;;;;;;;18.21;50.12;92936.16;5067364;28;20044;-86
2022/09/25 06:08:06;;;;;;;2.42;1.88;;;;;;;18.21;50.18;92936.16;5049764;28;20368;-86
2022/09/25 06:10:32;;;;;;;2.85;1.75;;;;;;;18.22;50.07;92935.63;5050686;28;20045;-87
2022/09/25 06:12:58;;;;;;;2.83;2.05;;;;;;;18.23;50.07;92930.91;5066785;28;20032;-87
2022/09/25 06:15:26;;;;;;;2.50;2.00;;;;;;;18.21;49.93;92928.69;5065352;28;20053;-87
2022/09/25 06:17:52;;;;;;;2.83;1.70;;;;;;;18.19;49.86;92923.00;5062060;28;20378;-87
2022/09/25 06:20:17;;;;;;;2.40;2.20;;;;;;;18.20;49.95;92932.69;5049746;28;20037;-87
2022/09/25 06:22:51;;;;;;;2.75;2.25;;;;;;;18.20;49.95;92921.00;5049136;28;20036;-87
2022/09/25 06:25:16;;;;;;;3.13;2.30;;;;;;;18.22;49.87;92927.44;5049600;28;20507;-86
2022/09/25 06:27:42;;;;;;;3.00;1.92;;;;;;;18.21;49.90;92925.94;5050072;28;20052;-86
2022/09/25 06:30:08;;;;;;;2.55;2.15;;;;;;;18.21;50.19;92927.94;5033045;28;20483;-86
2022/09/25 06:32:33;;;;;;;3.03;2.00;;;;;;;18.21;50.08;92931.44;5086849;28;20039;-87
2022/09/25 06:34:58;;;;;;;2.60;2.08;;;;;;;18.21;50.13;92927.94;5065462;28;20048;-88
2022/09/25 06:37:24;;;;;;;2.83;2.28;;;;;;;18.23;50.05;92919.97;5066085;28;20458;-87
2022/09/25 06:39:49;;;;;;;2.33;2.05;;;;;;;18.20;50.10;92924.47;5044340;28;20047;-86
2022/09/25 06:42:15;;;;;;;2.63;1.70;;;;;;;18.22;50.30;92921.22;5082630;28;20037;-87
2022/09/25 06:44:40;;;;;;;2.20;1.88;;;;;;;18.21;49.79;92917.00;5052310;28;20040;-86
2022/09/25 06:47:05;;;;;;;2.08;1.70;;;;;;;18.21;50.36;92917.75;5065677;28;20029;-86
2022/09/25 06:49:31;;;;;;;2.90;2.28;;;;;;;18.21;50.25;92909.53;5058172;28;20473;-87
2022/09/25 06:51:57;;;;;;;2.17;1.77;;;;;;;18.24;50.02;92905.03;5066280;28;20078;-86
2022/09/25 06:54:22;;;;;;;2.58;2.33;;;;;;;18.24;49.71;92902.28;5048933;28;20458;-87
2022/09/25 06:56:48;;;;;;;2.10;1.90;;;;;;;18.21;50.24;92904.06;5049904;28;20040;-86
2022/09/25 06:59:17;;;;;;;2.17;1.98;;;;;;;18.23;49.87;92909.75;5032074;28;20512;-87
2022/09/25 07:01:42;;;;;;;2.35;1.88;;;;;;;18.23;49.96;92909.03;5057584;28;20036;-86
2022/09/25 07:04:07;;;;;;;1.80;1.70;;;;;;;18.24;50.03;92910.50;5032504;28;20037;-86
2022/09/25 07:06:33;;;;;;;2.70;2.13;;;;;;;18.25;49.87;92918.19;5029108;28;20037;-88
2022/09/25 07:09:00;;;;;;;2.33;2.00;;;;;;;18.24;50.07;92915.97;5040451;28;20132;-87
2022/09/25 07:11:26;;;;;;;2.20;2.00;;;;;;;18.23;50.10;92907.03;5040418;28;20530;-87
2022/09/25 07:13:53;;;;;;;2.17;1.80;;;;;;;18.25;50.38;92914.72;5056352;28;20059;-86
2022/09/25 07:16:20;;;;;;;2.63;2.03;;;;;;;18.24;49.93;92919.44;5048690;28;20411;-87
2022/09/25 07:18:45;;;;;;;2.35;1.95;;;;;;;18.24;49.63;92913.97;5047184;28;20040;-86
2022/09/25 07:21:11;;;;;;;2.17;1.80;;;;;;;18.23;50.07;92917.22;5083839;28;20040;-86
2022/09/25 07:23:37;;;;;;;3.85;2.20;;;;;;;18.24;49.86;92915.97;5065166;28;20228;-86
2022/09/25 07:26:07;;;;;;;2.20;1.80;;;;;;;18.23;50.03;92923.44;5043522;28;20520;-87
2022/09/25 07:28:34;;;;;;;2.20;2.00;;;;;;;18.25;49.73;92926.41;5031221;28;20040;-86
2022/09/25 07:31:10;;;;;;;2.10;1.90;;;;;;;18.26;50.26;92918.94;5033353;28;20048;-88
2022/09/25 07:33:35;;;;;;;201.60;142.63;;;;;;;18.26;49.93;92919.66;5036352;28;20492;-89
2022/09/25 07:36:01;;;;;;;212.05;142.00;;;;;;;18.27;49.81;92912.19;5041573;28;20060;-89
2022/09/25 07:38:28;;;;;;;50.50;35.75;;;;;;;18.32;50.15;92919.59;5060352;28;20495;-90
2022/09/25 07:40:53;;;;;;;4.82;3.95;;;;;;;18.30;50.39;92922.84;5032270;28;20051;-88
2022/09/25 07:43:18;;;;;;;25.38;19.52;;;;;;;18.28;50.40;92919.88;5031591;28;20479;-89
2022/09/25 07:45:53;;;;;;;6.18;3.80;;;;;;;18.27;50.15;92914.94;5032903;28;20047;-87
2022/09/25 07:48:22;;;;;;;3.55;2.92;;;;;;;18.26;50.07;92913.44;5065197;28;20025;-87
2022/09/25 07:50:49;;;;;;;3.35;2.65;;;;;;;18.26;49.92;92924.41;5085416;28;20039;-87
2022/09/25 07:53:17;;;;;;;4.30;3.28;;;;;;;18.26;50.14;92922.41;5101563;28;20040;-87
2022/09/25 07:55:43;;;;;;;4.20;3.42;;;;;;;18.26;49.89;92914.19;5069444;28;20474;-87
2022/09/25 07:58:08;;;;;;;3.40;2.72;;;;;;;18.27;49.74;92923.88;5085330;28;20032;-88
2022/09/25 08:00:34;;;;;;;2.97;2.65;;;;;;;18.27;50.06;92920.41;5069203;28;20063;-88
2022/09/25 08:02:59;;;;;;;3.92;3.10;;;;;;;18.26;49.88;92922.41;5069217;28;20074;-88
2022/09/25 08:05:25;;;;;;;4.30;3.25;;;;;;;18.27;49.72;92925.88;5067938;28;20075;-87
2022/09/25 08:07:52;;;;;;;3.13;2.65;;;;;;;18.28;49.77;92914.41;5068988;28;20032;-89
2022/09/25 08:10:20;;;;;;;3.65;2.97;;;;;;;18.28;49.84;92908.94;5067706;28;20044;-87
2022/09/25 08:12:46;;;;;;;3.90;3.20;;;;;;;18.29;49.94;92912.41;5052191;28;20123;-89
2022/09/25 08:15:13;;;;;;;3.88;3.13;;;;;;;18.28;50.08;92898.00;5051198;28;20459;-87
2022/09/25 08:17:39;;;;;;;3.35;2.75;;;;;;;18.30;50.25;92900.94;5053282;28;20051;-87
2022/09/25 08:20:04;;;;;;;3.03;2.72;;;;;;;18.31;49.65;92896.22;5068148;28;20048;-86
2022/09/25 08:22:30;;;;;;;3.25;2.95;;;;;;;18.29;50.38;92893.25;5064903;28;20029;-87
2022/09/25 08:24:55;;;;;;;2.88;2.38;;;;;;;18.32;49.99;92900.44;5043548;28;20041;-87
2022/09/25 08:27:21;;;;;;;3.00;2.70;;;;;;;18.31;49.91;92899.69;5066987;28;20037;-87
2022/09/25 08:29:46;;;;;;;3.47;2.85;;;;;;;18.33;49.61;92902.66;5068966;28;20051;-87
2022/09/25 08:32:11;;;;;;;3.00;2.70;;;;;;;18.32;49.96;92894.97;5067878;28;20036;-87
2022/09/25 08:34:37;;;;;;;3.33;2.50;;;;;;;18.34;49.97;92900.66;5052822;28;20051;-88
2022/09/25 08:37:03;;;;;;;3.25;2.75;;;;;;;18.32;49.95;92909.38;5048255;28;20754;-88
2022/09/25 08:39:28;;;;;;;3.38;2.80;;;;;;;18.32;49.84;92911.38;5034224;28;20452;-88
2022/09/25 08:41:54;;;;;;;3.72;2.88;;;;;;;18.33;49.76;92916.31;5069198;28;20132;-87
2022/09/25 08:44:22;;;;;;;4.13;2.70;;;;;;;18.32;50.02;92919.59;5068401;28;20032;-88
2022/09/25 08:49:41;;;;;;;3.30;2.95;;;;;;;18.32;49.96;92914.09;5081088;28;20051;-87
2022/09/25 08:52:07;;;;;;;4.30;3.10;;;;;;;18.34;49.84;92919.81;5055321;28;20090;-88
2022/09/25 08:54:33;;;;;;;2.75;2.42;;;;;;;18.35;49.83;92916.53;5054165;28;20059;-88
2022/09/25 08:57:18;;;;;;;3.03;2.70;;;;;;;18.34;49.75;92906.84;5036648;28;20045;-87
2022/09/25 08:59:46;;;;;;;3.90;3.13;;;;;;;18.34;50.09;92908.84;5043667;28;20052;-88
2022/09/25 09:02:21;;;;;;;3.97;2.75;;;;;;;18.35;49.82;92907.59;5051157;28;20059;-87
2022/09/25 09:04:51;;;;;;;3.17;2.60;;;;;;;18.33;49.81;92913.59;5057397;28;20044;-87
2022/09/25 09:07:31;;;;;;;3.10;2.75;;;;;;;18.33;49.90;92907.38;5071951;28;20039;-87
2022/09/25 09:10:08;;;;;;;3.15;2.38;;;;;;;18.34;49.89;92908.84;5055616;28;20043;-88
2022/09/25 09:12:36;;;;;;;3.05;2.30;;;;;;;18.35;49.68;92913.81;5054208;28;20040;-88
2022/09/25 09:15:11;;;;;;;3.63;2.97;;;;;;;18.34;49.94;92903.38;5051178;28;20178;-88
2022/09/25 09:17:40;;;;;;;3.17;2.58;;;;;;;18.34;49.75;92903.38;5067926;28;20514;-87
2022/09/25 09:20:16;;;;;;;2.78;2.47;;;;;;;18.32;49.59;92898.44;5051231;28;20123;-87
2022/09/25 09:22:46;;;;;;;3.17;2.70;;;;;;;18.34;49.96;92903.38;5050804;28;20135;-87
2022/09/25 09:25:25;;;;;;;3.13;2.60;;;;;;;18.35;49.69;92904.84;5058879;28;20033;-87
2022/09/25 09:28:07;;;;;;;3.15;2.50;;;;;;;18.34;50.07;92901.38;5051749;28;20051;-87
2022/09/25 09:30:46;;;;;;;3.75;2.60;;;;;;;18.34;50.03;92903.38;5050865;28;20102;-87
2022/09/25 09:33:47;;;;;;;2.75;2.22;;;;;;;18.32;49.82;92903.91;5053230;28;20047;-88
2022/09/25 09:36:21;;;;;;;3.13;2.67;;;;;;;18.34;49.70;92895.91;5071218;28;20040;-87
2022/09/25 09:39:14;;;;;;;2.45;2.25;;;;;;;18.32;49.88;92892.22;5071110;28;20044;-87
2022/09/25 09:41:46;;;;;;;3.28;2.53;;;;;;;18.33;49.72;92894.44;5055053;28;20131;-88
2022/09/25 09:44:28;;;;;;;2.60;2.38;;;;;;;18.34;49.94;92900.66;5067448;28;20047;-87
2022/09/25 09:47:23;;;;;;;3.13;2.40;;;;;;;18.33;50.11;92897.16;5067537;28;20570;-89
2022/09/25 09:49:52;;;;;;;3.58;2.60;;;;;;;18.34;49.99;92895.91;5053227;28;20609;-87
2022/09/25 09:52:29;;;;;;;2.53;2.33;;;;;;;18.35;49.92;92893.91;5052004;28;20056;-87
2022/09/25 09:54:58;;;;;;;1.92;1.67;;;;;;;18.34;50.08;92887.69;5071911;28;20040;-87
2022/09/25 09:57:30;;;;;;;2.83;2.38;;;;;;;18.35;50.41;92891.19;5068615;28;20489;-87
2022/09/25 10:00:05;;;;;;;2.67;2.20;;;;;;;18.33;50.18;92886.22;5050948;28;20041;-88
2022/09/25 10:02:43;;;;;;;2.38;1.83;;;;;;;18.35;50.09;92883.72;5041093;28;20127;-87
2022/09/25 10:05:16;;;;;;;2.97;2.38;;;;;;;18.37;49.68;92877.72;5075000;27;20036;-89
2022/09/25 10:07:41;;;;;;;2.78;2.28;;;;;;;18.36;49.93;92874.25;5067431;28;20037;-88
2022/09/25 10:10:13;;;;;;;2.75;2.30;;;;;;;18.36;50.32;92873.50;5064951;28;20056;-84
2022/09/25 10:12:38;;;;;;;4.88;2.28;;;;;;;18.39;50.11;92872.47;5076210;28;20556;-88
2022/09/25 10:15:06;;;;;;;3.70;2.17;;;;;;;18.38;50.48;92865.50;5049958;28;20036;-88
2022/09/25 10:17:32;;;;;;;2.97;2.67;;;;;;;18.38;50.20;92870.97;5036366;28;20427;-88
2022/09/25 10:20:00;;;;;;;2.42;2.22;;;;;;;18.37;49.99;92861.28;5020257;28;20351;-88
2022/09/25 10:22:27;;;;;;;2.63;2.15;;;;;;;18.38;50.32;92865.50;5033531;28;20451;-88
2022/09/25 10:24:54;;;;;;;2.28;2.08;;;;;;;18.36;50.44;92866.03;5066649;28;20029;-89
2022/09/25 10:27:23;;;;;;;2.30;1.92;;;;;;;18.38;50.09;92862.78;5049367;28;20060;-88
2022/09/25 10:30:05;;;;;;;1.73;1.60;;;;;;;18.37;49.88;92867.50;5051120;28;20376;-87
2022/09/25 10:32:44;;;;;;;2.45;2.10;;;;;;;18.39;49.91;92858.78;5053979;28;20048;-87
2022/09/25 10:35:21;;;;;;;2.17;1.90;;;;;;;18.40;50.33;92865.72;5064226;28;20044;-88
2022/09/25 10:37:49;;;;;;;2.55;2.35;;;;;;;18.39;50.17;92864.25;5056077;28;20045;-89
2022/09/25 10:40:34;;;;;;;2.42;1.98;;;;;;;18.38;50.12;92866.25;5025932;28;20041;-88
2022/09/25 10:43:15;;;;;;;2.53;2.28;;;;;;;18.39;50.37;92862.25;5033489;28;20411;-88
2022/09/25 10:45:41;;;;;;;2.85;2.15;;;;;;;18.39;50.22;92864.97;5066293;28;20045;-88
2022/09/25 10:51:22;;;;;;;2.38;2.17;;;;;;;18.40;50.32;92854.78;5095537;28;20134;-88
2022/09/25 10:53:49;;;;;;;2.50;2.17;;;;;;;18.39;50.22;92851.31;5069946;28;20040;-88
2022/09/25 10:56:31;;;;;;;2.72;2.20;;;;;;;18.37;50.17;92851.09;5069216;28;20078;-88
2022/09/25 10:58:58;;;;;;;2.15;1.95;;;;;;;18.39;50.23;92854.03;5070846;28;20589;-87
2022/09/25 11:01:37;;;;;;;2.40;2.13;;;;;;;18.40;50.45;92849.31;5084846;28;20051;-88
2022/09/25 11:04:09;;;;;;;3.05;2.25;;;;;;;18.40;50.45;92852.03;5069595;28;20036;-88
2022/09/25 11:06:35;;;;;;;2.58;2.08;;;;;;;18.41;50.11;92846.03;5086866;28;20040;-88
2022/09/25 11:09:16;;;;;;;2.42;2.22;;;;;;;18.40;50.10;92841.09;5066639;28;20047;-88
2022/09/25 11:11:43;;;;;;;3.00;2.13;;;;;;;18.40;50.37;92835.63;5055195;28;20556;-88
2022/09/25 11:14:18;;;;;;;2.67;1.90;;;;;;;18.38;50.13;92844.34;5050009;28;20040;-87
2022/09/25 11:16:45;;;;;;;2.20;1.88;;;;;;;18.39;50.31;92839.63;5055347;28;20033;-88
2022/09/25 11:19:14;;;;;;;2.22;2.00;;;;;;;18.40;50.23;92841.09;5068970;28;20036;-87
2022/09/25 11:21:48;;;;;;;2.00;1.80;;;;;;;18.40;49.99;92852.75;5059198;28;20041;-88
2022/09/25 11:24:21;;;;;;;2.70;2.17;;;;;;;18.41;50.49;92853.50;5076461;28;20052;-88
2022/09/25 11:26:50;;;;;;;2.45;1.83;;;;;;;18.41;49.98;92845.28;5086318;28;20044;-88
2022/09/25 11:29:41;;;;;;;2.22;1.77;;;;;;;18.41;50.17;92848.00;5079425;28;20044;-88
2022/09/25 11:32:38;;;;;;;2.20;2.00;;;;;;;18.40;50.37;92847.28;5069306;28;20036;-88
2022/09/25 11:35:37;;;;;;;2.10;1.90;;;;;;;18.41;50.22;92848.00;5074895;28;20123;-88
2022/09/25 11:38:14;;;;;;;2.33;2.03;;;;;;;18.39;50.00;92840.34;5085640;28;20032;-87
2022/09/25 11:41:19;;;;;;;2.30;1.70;;;;;;;18.40;50.00;92835.63;5085696;28;20047;-88
2022/09/25 11:44:05;;;;;;;2.63;2.00;;;;;;;18.40;50.22;92832.88;5086488;28;20064;-88
2022/09/25 11:46:39;;;;;;;2.22;2.03;;;;;;;18.40;49.92;92833.59;5065685;28;20044;-88
2022/09/25 11:49:16;;;;;;;2.50;1.92;;;;;;;18.40;50.40;92828.13;5064444;28;20066;-88
2022/09/25 11:52:07;;;;;;;2.15;1.95;;;;;;;18.39;50.22;92837.63;5067170;28;20045;-88
2022/09/25 11:54:53;;;;;;;2.00;1.77;;;;;;;18.40;50.07;92835.63;5065269;28;20079;-88
2022/09/25 11:57:50;;;;;;;2.58;1.95;;;;;;;18.40;50.11;92825.38;5064767;28;20127;-87